createdAt,value
2018-06-15T00:01:53.869Z,99446.77
2018-06-15T00:04:21.452Z,99445.45
2018-06-15T00:06:49.420Z,99442.30
2018-06-15T00:09:17.119Z,99450.20
2018-06-15T00:11:44.760Z,99443.88
2018-06-15T00:14:12.347Z,99447.29
2018-06-15T00:16:40.268Z,99451.80
2018-06-15T00:19:09.100Z,99440.19
2018-06-15T00:21:36.703Z,99444.39
2018-06-15T00:24:04.264Z,99441.77
2018-06-15T00:26:32.152Z,99443.08
2018-06-15T00:28:59.711Z,99440.45
2018-06-15T00:31:27.520Z,99445.47
2018-06-15T00:33:55.548Z,99442.84
2018-06-15T00:36:23.148Z,99440.46
2018-06-15T00:38:50.726Z,99440.72
2018-06-15T00:41:18.785Z,99441.79
2018-06-15T00:43:46.383Z,99436.52
2018-06-15T00:46:13.959Z,99442.84
2018-06-15T00:48:42.095Z,99441.00
2018-06-15T00:51:10.883Z,99439.13
2018-06-15T00:53:38.456Z,99433.86
2018-06-15T00:56:06.608Z,99437.55
2018-06-15T00:58:34.337Z,99434.91
2018-06-15T01:01:02.357Z,99428.85
2018-06-15T01:03:30.305Z,99433.86
2018-06-15T01:05:57.868Z,99430.17
2018-06-15T01:08:25.876Z,99430.72
2018-06-15T01:10:53.484Z,99432.03
2018-06-15T01:13:21.092Z,99436.25
2018-06-15T01:15:49.543Z,99426.23
2018-06-15T01:18:17.748Z,99425.20
2018-06-15T01:20:45.538Z,99429.67
2018-06-15T01:23:13.183Z,99427.56
2018-06-15T01:25:41.215Z,99433.63
2018-06-15T01:28:08.792Z,99433.38
2018-06-15T01:30:36.383Z,99428.36
2018-06-15T01:33:03.941Z,99426.79
2018-06-15T01:35:31.851Z,99427.85
2018-06-15T01:37:59.463Z,99424.41
2018-06-15T01:40:28.059Z,99416.77
2018-06-15T01:42:55.663Z,99416.27
2018-06-15T01:45:26.683Z,99415.47
2018-06-15T01:47:55.273Z,99418.63
2018-06-15T01:50:22.864Z,99412.56
2018-06-15T01:52:50.876Z,99419.95
2018-06-15T01:55:18.459Z,99419.95
2018-06-15T01:57:46.120Z,99417.83
2018-06-15T02:00:14.261Z,99410.98
2018-06-15T02:02:41.943Z,99414.67
2018-06-15T02:05:09.513Z,99416.77
2018-06-15T02:07:37.568Z,99415.19
2018-06-15T02:10:05.770Z,99418.09
2018-06-15T02:12:33.389Z,99413.38
2018-06-15T02:15:00.957Z,99414.69
2018-06-15T02:17:28.841Z,99413.08
2018-06-15T02:19:56.672Z,99412.05
2018-06-15T02:22:24.264Z,99405.98
2018-06-15T02:24:51.872Z,99406.25
2018-06-15T02:27:20.579Z,99404.41
2018-06-15T02:29:48.191Z,99404.66
2018-06-15T02:32:15.775Z,99407.30
2018-06-15T02:34:43.476Z,99396.23
2018-06-15T02:37:11.407Z,99407.55
2018-06-15T02:39:39.016Z,99406.46
2018-06-15T02:42:06.592Z,99413.58
2018-06-15T02:44:35.047Z,99413.03
2018-06-15T02:47:03.668Z,99420.42
2018-06-15T02:49:31.761Z,99414.91
2018-06-15T02:51:59.356Z,99414.91
2018-06-15T02:54:27.748Z,99413.86
2018-06-15T02:56:55.867Z,99417.02
2018-06-15T02:59:24.261Z,99417.83
2018-06-15T03:01:51.836Z,99414.14
2018-06-15T03:04:19.423Z,99411.24
2018-06-15T03:06:47.414Z,99419.14
2018-06-15T03:09:15.804Z,99417.03
2018-06-15T03:11:43.464Z,99417.58
2018-06-15T03:14:11.683Z,99414.95
2018-06-15T03:16:40.087Z,99421.53
2018-06-15T03:19:07.945Z,99421.53
2018-06-15T03:21:35.559Z,99425.75
2018-06-15T03:24:03.512Z,99428.89
2018-06-15T03:26:31.220Z,99430.48
2018-06-15T03:28:58.839Z,99433.63
2018-06-15T03:31:26.423Z,99433.89
2018-06-15T03:33:54.370Z,99443.39
2018-06-15T03:36:21.996Z,99437.87
2018-06-15T03:38:49.571Z,99442.08
2018-06-15T03:41:18.507Z,99442.63
2018-06-15T03:43:46.123Z,99445.53
2018-06-15T03:46:13.706Z,99445.27
2018-06-15T03:48:41.586Z,99442.34
2018-06-15T03:51:09.152Z,99448.16
2018-06-15T03:53:36.700Z,99450.53
2018-06-15T03:56:05.919Z,99452.11
2018-06-15T03:58:33.524Z,99448.69
2018-06-15T04:01:01.130Z,99448.69
2018-06-15T04:03:28.700Z,99455.83
2018-06-15T04:05:58.059Z,99456.84
2018-06-15T04:08:26.627Z,99452.89
2018-06-15T04:10:54.245Z,99461.87
2018-06-15T04:13:22.300Z,99464.77
2018-06-15T04:15:50.054Z,99460.05
2018-06-15T04:18:17.635Z,99459.80
2018-06-15T04:20:47.665Z,99464.28
2018-06-15T04:23:15.622Z,99464.28
2018-06-15T04:25:44.179Z,99463.77
2018-06-15T04:28:11.782Z,99458.49
2018-06-15T04:30:41.612Z,99464.28
2018-06-15T04:33:09.292Z,99470.88
2018-06-15T04:35:36.875Z,99470.89
2018-06-15T04:38:04.876Z,99474.30
2018-06-15T04:40:32.463Z,99470.09
2018-06-15T04:43:00.069Z,99468.78
2018-06-15T04:45:28.083Z,99467.20
2018-06-15T04:47:55.660Z,99468.54
2018-06-15T04:50:24.416Z,99464.59
2018-06-15T04:52:52.475Z,99464.61
